sensor_id;sensor_type;location;lat;lon;timestamp;P1;durP1;ratioP1;P2;durP2;ratioP2
24761;SDS011;12865;51.934;10.330;2022-10-16T00:02:31;6.68;;;4.47;;
24761;SDS011;12865;51.934;10.330;2022-10-16T00:05:17;8.18;;;4.03;;
24761;SDS011;12865;51.934;10.330;2022-10-16T00:08:02;3.17;;;2.88;;
24761;SDS011;12865;51.934;10.330;2022-10-16T00:10:48;3.50;;;3.20;;
24761;SDS011;12865;51.934;10.330;2022-10-16T00:13:34;3.70;;;2.80;;
24761;SDS011;12865;51.934;10.330;2022-10-16T00:16:22;4.25;;;3.85;;
24761;SDS011;12865;51.934;10.330;2022-10-16T00:19:08;4.10;;;3.60;;
24761;SDS011;12865;51.934;10.330;2022-10-16T00:21:56;4.00;;;3.67;;
24761;SDS011;12865;51.934;10.330;2022-10-16T00:24:41;6.13;;;5.05;;
24761;SDS011;12865;51.934;10.330;2022-10-16T00:27:27;5.05;;;4.47;;
24761;SDS011;12865;51.934;10.330;2022-10-16T00:30:13;5.25;;;4.85;;
24761;SDS011;12865;51.934;10.330;2022-10-16T00:32:58;8.10;;;5.13;;
24761;SDS011;12865;51.934;10.330;2022-10-16T00:35:44;5.40;;;4.93;;
24761;SDS011;12865;51.934;10.330;2022-10-16T00:38:30;4.97;;;4.50;;
24761;SDS011;12865;51.934;10.330;2022-10-16T00:41:17;4.35;;;3.72;;
24761;SDS011;12865;51.934;10.330;2022-10-16T00:44:03;4.40;;;3.80;;
24761;SDS011;12865;51.934;10.330;2022-10-16T00:47:19;4.65;;;3.80;;
24761;SDS011;12865;51.934;10.330;2022-10-16T00:50:20;5.00;;;3.47;;
24761;SDS011;12865;51.934;10.330;2022-10-16T00:53:13;6.10;;;3.53;;
24761;SDS011;12865;51.934;10.330;2022-10-16T00:55:59;8.50;;;3.58;;
24761;SDS011;12865;51.934;10.330;2022-10-16T00:58:46;4.18;;;2.40;;
24761;SDS011;12865;51.934;10.330;2022-10-16T01:01:32;5.95;;;3.47;;
24761;SDS011;12865;51.934;10.330;2022-10-16T01:04:17;5.40;;;3.97;;
24761;SDS011;12865;51.934;10.330;2022-10-16T01:10:50;4.07;;;3.67;;
24761;SDS011;12865;51.934;10.330;2022-10-16T01:13:43;4.57;;;3.08;;
24761;SDS011;12865;51.934;10.330;2022-10-16T01:16:34;4.38;;;3.42;;
24761;SDS011;12865;51.934;10.330;2022-10-16T01:23:00;5.22;;;2.88;;
24761;SDS011;12865;51.934;10.330;2022-10-16T01:29:29;3.65;;;3.20;;
24761;SDS011;12865;51.934;10.330;2022-10-16T01:32:36;6.05;;;2.72;;
24761;SDS011;12865;51.934;10.330;2022-10-16T01:35:42;4.47;;;2.80;;
24761;SDS011;12865;51.934;10.330;2022-10-16T01:38:41;5.20;;;3.08;;
24761;SDS011;12865;51.934;10.330;2022-10-16T01:41:32;6.72;;;3.10;;
24761;SDS011;12865;51.934;10.330;2022-10-16T01:44:24;2.83;;;2.63;;
24761;SDS011;12865;51.934;10.330;2022-10-16T01:47:14;2.83;;;2.47;;
24761;SDS011;12865;51.934;10.330;2022-10-16T01:50:03;2.85;;;2.67;;
24761;SDS011;12865;51.934;10.330;2022-10-16T01:52:51;3.58;;;3.22;;
24761;SDS011;12865;51.934;10.330;2022-10-16T01:55:40;4.60;;;3.10;;
24761;SDS011;12865;51.934;10.330;2022-10-16T01:58:30;4.97;;;3.17;;
24761;SDS011;12865;51.934;10.330;2022-10-16T02:01:20;5.53;;;3.20;;
24761;SDS011;12865;51.934;10.330;2022-10-16T02:04:28;4.70;;;3.35;;
24761;SDS011;12865;51.934;10.330;2022-10-16T02:07:17;3.20;;;3.00;;
24761;SDS011;12865;51.934;10.330;2022-10-16T02:10:03;7.05;;;4.03;;
24761;SDS011;12865;51.934;10.330;2022-10-16T02:13:01;7.03;;;3.55;;
24761;SDS011;12865;51.934;10.330;2022-10-16T02:15:51;3.80;;;3.28;;
24761;SDS011;12865;51.934;10.330;2022-10-16T02:18:37;5.45;;;3.83;;
24761;SDS011;12865;51.934;10.330;2022-10-16T02:21:28;3.90;;;3.53;;
24761;SDS011;12865;51.934;10.330;2022-10-16T02:24:19;5.65;;;3.88;;
24761;SDS011;12865;51.934;10.330;2022-10-16T02:27:32;5.25;;;4.75;;
24761;SDS011;12865;51.934;10.330;2022-10-16T02:30:49;6.88;;;4.70;;
24761;SDS011;12865;51.934;10.330;2022-10-16T02:33:40;6.32;;;3.72;;
24761;SDS011;12865;51.934;10.330;2022-10-16T02:36:29;5.17;;;4.40;;
24761;SDS011;12865;51.934;10.330;2022-10-16T02:39:15;4.95;;;4.43;;
24761;SDS011;12865;51.934;10.330;2022-10-16T02:42:02;7.70;;;4.30;;
24761;SDS011;12865;51.934;10.330;2022-10-16T02:44:48;5.57;;;4.20;;
24761;SDS011;12865;51.934;10.330;2022-10-16T02:47:33;5.68;;;3.90;;
24761;SDS011;12865;51.934;10.330;2022-10-16T02:50:19;5.43;;;4.35;;
24761;SDS011;12865;51.934;10.330;2022-10-16T02:53:05;4.70;;;3.70;;
24761;SDS011;12865;51.934;10.330;2022-10-16T02:55:50;6.07;;;4.43;;
24761;SDS011;12865;51.934;10.330;2022-10-16T02:58:36;4.97;;;4.07;;
24761;SDS011;12865;51.934;10.330;2022-10-16T03:01:22;4.35;;;3.90;;
24761;SDS011;12865;51.934;10.330;2022-10-16T03:04:08;4.60;;;3.72;;
24761;SDS011;12865;51.934;10.330;2022-10-16T03:06:53;4.80;;;3.67;;
24761;SDS011;12865;51.934;10.330;2022-10-16T03:09:39;3.90;;;3.40;;
24761;SDS011;12865;51.934;10.330;2022-10-16T03:12:26;5.47;;;4.00;;
24761;SDS011;12865;51.934;10.330;2022-10-16T03:15:12;6.50;;;4.40;;
24761;SDS011;12865;51.934;10.330;2022-10-16T03:17:58;7.03;;;4.35;;
24761;SDS011;12865;51.934;10.330;2022-10-16T03:20:44;5.78;;;4.15;;
24761;SDS011;12865;51.934;10.330;2022-10-16T03:23:30;3.80;;;3.30;;
24761;SDS011;12865;51.934;10.330;2022-10-16T03:26:15;5.72;;;3.75;;
24761;SDS011;12865;51.934;10.330;2022-10-16T03:29:01;4.78;;;3.47;;
24761;SDS011;12865;51.934;10.330;2022-10-16T03:31:48;8.00;;;4.53;;
24761;SDS011;12865;51.934;10.330;2022-10-16T03:34:34;6.05;;;4.38;;
24761;SDS011;12865;51.934;10.330;2022-10-16T03:37:20;5.95;;;4.30;;
24761;SDS011;12865;51.934;10.330;2022-10-16T03:40:06;5.57;;;3.92;;
24761;SDS011;12865;51.934;10.330;2022-10-16T03:42:52;5.55;;;4.10;;
24761;SDS011;12865;51.934;10.330;2022-10-16T03:45:40;3.70;;;3.40;;
24761;SDS011;12865;51.934;10.330;2022-10-16T03:48:26;7.70;;;3.65;;
24761;SDS011;12865;51.934;10.330;2022-10-16T03:51:12;6.78;;;3.00;;
24761;SDS011;12865;51.934;10.330;2022-10-16T03:53:57;4.30;;;3.22;;
24761;SDS011;12865;51.934;10.330;2022-10-16T03:56:43;11.57;;;4.43;;
24761;SDS011;12865;51.934;10.330;2022-10-16T03:59:29;8.23;;;4.43;;
24761;SDS011;12865;51.934;10.330;2022-10-16T04:02:14;5.57;;;4.43;;
24761;SDS011;12865;51.934;10.330;2022-10-16T04:05:00;6.28;;;3.65;;
24761;SDS011;12865;51.934;10.330;2022-10-16T04:07:46;4.82;;;3.80;;
24761;SDS011;12865;51.934;10.330;2022-10-16T04:10:31;5.15;;;3.63;;
24761;SDS011;12865;51.934;10.330;2022-10-16T04:13:17;5.50;;;3.72;;
24761;SDS011;12865;51.934;10.330;2022-10-16T04:16:03;3.35;;;3.15;;
24761;SDS011;12865;51.934;10.330;2022-10-16T04:18:49;4.15;;;3.85;;
24761;SDS011;12865;51.934;10.330;2022-10-16T04:21:34;4.82;;;3.70;;
24761;SDS011;12865;51.934;10.330;2022-10-16T04:24:20;8.52;;;4.60;;
24761;SDS011;12865;51.934;10.330;2022-10-16T04:27:06;4.95;;;3.75;;
24761;SDS011;12865;51.934;10.330;2022-10-16T04:29:51;7.30;;;4.03;;
24761;SDS011;12865;51.934;10.330;2022-10-16T04:32:37;4.30;;;3.75;;
24761;SDS011;12865;51.934;10.330;2022-10-16T04:35:23;4.18;;;3.78;;
24761;SDS011;12865;51.934;10.330;2022-10-16T04:38:08;5.95;;;3.60;;
24761;SDS011;12865;51.934;10.330;2022-10-16T04:40:54;5.22;;;3.63;;
24761;SDS011;12865;51.934;10.330;2022-10-16T04:43:40;7.00;;;5.30;;
24761;SDS011;12865;51.934;10.330;2022-10-16T04:46:26;7.53;;;5.85;;
24761;SDS011;12865;51.934;10.330;2022-10-16T04:49:11;10.35;;;5.38;;
24761;SDS011;12865;51.934;10.330;2022-10-16T04:51:57;11.27;;;7.10;;
24761;SDS011;12865;51.934;10.330;2022-10-16T04:54:43;8.75;;;6.10;;
24761;SDS011;12865;51.934;10.330;2022-10-16T04:57:30;16.88;;;8.88;;
24761;SDS011;12865;51.934;10.330;2022-10-16T05:00:16;11.23;;;7.15;;
24761;SDS011;12865;51.934;10.330;2022-10-16T05:03:02;12.27;;;9.20;;
24761;SDS011;12865;51.934;10.330;2022-10-16T05:05:51;13.25;;;8.50;;
24761;SDS011;12865;51.934;10.330;2022-10-16T05:08:36;10.88;;;6.95;;
24761;SDS011;12865;51.934;10.330;2022-10-16T05:11:22;9.68;;;7.30;;
24761;SDS011;12865;51.934;10.330;2022-10-16T05:14:08;9.90;;;7.32;;
24761;SDS011;12865;51.934;10.330;2022-10-16T05:16:53;11.30;;;6.80;;
24761;SDS011;12865;51.934;10.330;2022-10-16T05:19:39;9.55;;;5.78;;
24761;SDS011;12865;51.934;10.330;2022-10-16T05:22:25;7.75;;;5.88;;
24761;SDS011;12865;51.934;10.330;2022-10-16T05:25:11;7.15;;;6.50;;
24761;SDS011;12865;51.934;10.330;2022-10-16T05:27:56;7.13;;;4.15;;
24761;SDS011;12865;51.934;10.330;2022-10-16T05:30:42;7.78;;;4.72;;
24761;SDS011;12865;51.934;10.330;2022-10-16T05:33:27;5.45;;;4.93;;
24761;SDS011;12865;51.934;10.330;2022-10-16T05:36:13;3.78;;;3.50;;
24761;SDS011;12865;51.934;10.330;2022-10-16T05:38:59;5.28;;;4.03;;
24761;SDS011;12865;51.934;10.330;2022-10-16T05:41:45;3.92;;;3.67;;
24761;SDS011;12865;51.934;10.330;2022-10-16T05:44:30;3.55;;;3.22;;
24761;SDS011;12865;51.934;10.330;2022-10-16T05:47:16;3.72;;;3.30;;
24761;SDS011;12865;51.934;10.330;2022-10-16T05:50:02;3.38;;;2.88;;
24761;SDS011;12865;51.934;10.330;2022-10-16T05:52:49;3.40;;;3.00;;
24761;SDS011;12865;51.934;10.330;2022-10-16T05:55:35;4.53;;;3.28;;
24761;SDS011;12865;51.934;10.330;2022-10-16T05:58:21;3.10;;;2.88;;
24761;SDS011;12865;51.934;10.330;2022-10-16T06:01:09;2.80;;;2.60;;
24761;SDS011;12865;51.934;10.330;2022-10-16T06:03:56;3.45;;;2.40;;
24761;SDS011;12865;51.934;10.330;2022-10-16T06:06:43;2.83;;;2.70;;
24761;SDS011;12865;51.934;10.330;2022-10-16T06:09:28;4.80;;;2.40;;
24761;SDS011;12865;51.934;10.330;2022-10-16T06:12:14;5.20;;;2.90;;
24761;SDS011;12865;51.934;10.330;2022-10-16T06:15:00;3.13;;;2.42;;
24761;SDS011;12865;51.934;10.330;2022-10-16T06:17:45;3.40;;;2.50;;
24761;SDS011;12865;51.934;10.330;2022-10-16T06:20:31;2.95;;;2.65;;
24761;SDS011;12865;51.934;10.330;2022-10-16T06:23:17;3.03;;;2.60;;
24761;SDS011;12865;51.934;10.330;2022-10-16T06:26:10;4.88;;;2.75;;
24761;SDS011;12865;51.934;10.330;2022-10-16T06:28:58;2.30;;;2.10;;
24761;SDS011;12865;51.934;10.330;2022-10-16T06:31:44;4.45;;;2.53;;
24761;SDS011;12865;51.934;10.330;2022-10-16T06:34:30;2.92;;;2.72;;
24761;SDS011;12865;51.934;10.330;2022-10-16T06:37:16;3.15;;;2.95;;
24761;SDS011;12865;51.934;10.330;2022-10-16T06:40:01;2.88;;;2.78;;
24761;SDS011;12865;51.934;10.330;2022-10-16T06:42:49;3.03;;;2.78;;
24761;SDS011;12865;51.934;10.330;2022-10-16T06:45:37;3.90;;;3.60;;
24761;SDS011;12865;51.934;10.330;2022-10-16T06:48:23;2.70;;;2.50;;
24761;SDS011;12865;51.934;10.330;2022-10-16T06:51:10;3.08;;;2.88;;
24761;SDS011;12865;51.934;10.330;2022-10-16T06:53:57;3.78;;;2.50;;
24761;SDS011;12865;51.934;10.330;2022-10-16T06:56:43;3.00;;;2.58;;
24761;SDS011;12865;51.934;10.330;2022-10-16T06:59:29;2.53;;;2.35;;
24761;SDS011;12865;51.934;10.330;2022-10-16T07:02:14;4.38;;;1.98;;
24761;SDS011;12865;51.934;10.330;2022-10-16T07:05:00;5.07;;;1.90;;
24761;SDS011;12865;51.934;10.330;2022-10-16T07:07:46;2.00;;;1.70;;
24761;SDS011;12865;51.934;10.330;2022-10-16T07:10:32;2.45;;;1.88;;
24761;SDS011;12865;51.934;10.330;2022-10-16T07:13:18;1.83;;;1.73;;
24761;SDS011;12865;51.934;10.330;2022-10-16T07:16:08;2.03;;;1.83;;
24761;SDS011;12865;51.934;10.330;2022-10-16T07:18:59;2.00;;;1.83;;
24761;SDS011;12865;51.934;10.330;2022-10-16T07:21:46;1.95;;;1.77;;
24761;SDS011;12865;51.934;10.330;2022-10-16T07:24:31;4.03;;;1.63;;
24761;SDS011;12865;51.934;10.330;2022-10-16T07:27:18;3.17;;;1.80;;
24761;SDS011;12865;51.934;10.330;2022-10-16T07:30:04;1.80;;;1.70;;
24761;SDS011;12865;51.934;10.330;2022-10-16T07:32:50;2.53;;;1.60;;
24761;SDS011;12865;51.934;10.330;2022-10-16T07:35:36;2.90;;;1.77;;
24761;SDS011;12865;51.934;10.330;2022-10-16T07:38:22;2.90;;;1.70;;
24761;SDS011;12865;51.934;10.330;2022-10-16T07:41:09;1.85;;;1.48;;
24761;SDS011;12865;51.934;10.330;2022-10-16T07:44:03;1.70;;;1.35;;
24761;SDS011;12865;51.934;10.330;2022-10-16T07:46:49;2.28;;;1.73;;
24761;SDS011;12865;51.934;10.330;2022-10-16T07:49:35;2.88;;;1.73;;
24761;SDS011;12865;51.934;10.330;2022-10-16T07:52:21;2.17;;;1.55;;
24761;SDS011;12865;51.934;10.330;2022-10-16T07:55:06;1.60;;;1.50;;
24761;SDS011;12865;51.934;10.330;2022-10-16T07:57:53;4.00;;;1.70;;
24761;SDS011;12865;51.934;10.330;2022-10-16T08:00:38;1.85;;;1.48;;
24761;SDS011;12865;51.934;10.330;2022-10-16T08:03:24;1.65;;;1.33;;
24761;SDS011;12865;51.934;10.330;2022-10-16T08:06:10;2.78;;;1.10;;
24761;SDS011;12865;51.934;10.330;2022-10-16T08:08:56;1.38;;;1.27;;
24761;SDS011;12865;51.934;10.330;2022-10-16T08:11:42;2.13;;;1.30;;
24761;SDS011;12865;51.934;10.330;2022-10-16T08:14:28;2.17;;;1.15;;
24761;SDS011;12865;51.934;10.330;2022-10-16T08:17:14;2.97;;;1.30;;
24761;SDS011;12865;51.934;10.330;2022-10-16T08:20:00;1.50;;;1.40;;
24761;SDS011;12865;51.934;10.330;2022-10-16T08:22:47;3.42;;;1.30;;
24761;SDS011;12865;51.934;10.330;2022-10-16T08:25:36;3.25;;;1.00;;
24761;SDS011;12865;51.934;10.330;2022-10-16T08:28:22;0.98;;;0.90;;
24761;SDS011;12865;51.934;10.330;2022-10-16T08:31:09;3.03;;;1.70;;
24761;SDS011;12865;51.934;10.330;2022-10-16T08:33:57;1.15;;;1.10;;
24761;SDS011;12865;51.934;10.330;2022-10-16T08:36:43;1.45;;;0.80;;
24761;SDS011;12865;51.934;10.330;2022-10-16T08:39:29;1.30;;;1.00;;
24761;SDS011;12865;51.934;10.330;2022-10-16T08:45:31;3.10;;;0.82;;
24761;SDS011;12865;51.934;10.330;2022-10-16T08:48:30;1.08;;;0.80;;
24761;SDS011;12865;51.934;10.330;2022-10-16T08:51:37;2.67;;;0.75;;
24761;SDS011;12865;51.934;10.330;2022-10-16T08:54:34;1.27;;;0.80;;
24761;SDS011;12865;51.934;10.330;2022-10-16T08:57:26;1.33;;;0.95;;
24761;SDS011;12865;51.934;10.330;2022-10-16T09:00:16;0.93;;;0.90;;
24761;SDS011;12865;51.934;10.330;2022-10-16T09:09:45;1.48;;;0.80;;
24761;SDS011;12865;51.934;10.330;2022-10-16T09:12:40;1.02;;;0.80;;
24761;SDS011;12865;51.934;10.330;2022-10-16T09:22:14;2.03;;;1.10;;
24761;SDS011;12865;51.934;10.330;2022-10-16T09:25:10;1.65;;;1.00;;
24761;SDS011;12865;51.934;10.330;2022-10-16T09:27:58;1.50;;;0.80;;
24761;SDS011;12865;51.934;10.330;2022-10-16T09:30:44;3.75;;;1.10;;
24761;SDS011;12865;51.934;10.330;2022-10-16T09:33:35;1.73;;;1.05;;
24761;SDS011;12865;51.934;10.330;2022-10-16T09:36:23;0.80;;;0.80;;
24761;SDS011;12865;51.934;10.330;2022-10-16T09:39:12;1.90;;;1.70;;
24761;SDS011;12865;51.934;10.330;2022-10-16T09:41:58;0.90;;;0.90;;
24761;SDS011;12865;51.934;10.330;2022-10-16T09:44:49;3.67;;;1.00;;
24761;SDS011;12865;51.934;10.330;2022-10-16T09:47:37;3.53;;;1.35;;
24761;SDS011;12865;51.934;10.330;2022-10-16T09:50:28;4.40;;;1.40;;
24761;SDS011;12865;51.934;10.330;2022-10-16T09:53:14;1.33;;;1.08;;
24761;SDS011;12865;51.934;10.330;2022-10-16T09:56:02;2.03;;;0.70;;
24761;SDS011;12865;51.934;10.330;2022-10-16T09:58:52;1.55;;;0.80;;
24761;SDS011;12865;51.934;10.330;2022-10-16T10:01:40;2.20;;;0.90;;
24761;SDS011;12865;51.934;10.330;2022-10-16T10:04:37;1.88;;;0.73;;
24761;SDS011;12865;51.934;10.330;2022-10-16T10:07:35;1.00;;;1.00;;
24761;SDS011;12865;51.934;10.330;2022-10-16T10:10:28;2.47;;;1.08;;
24761;SDS011;12865;51.934;10.330;2022-10-16T10:13:17;1.40;;;1.10;;
24761;SDS011;12865;51.934;10.330;2022-10-16T10:18:57;2.35;;;1.10;;
24761;SDS011;12865;51.934;10.330;2022-10-16T10:21:44;0.95;;;0.90;;
24761;SDS011;12865;51.934;10.330;2022-10-16T10:24:31;1.33;;;0.90;;
24761;SDS011;12865;51.934;10.330;2022-10-16T10:27:16;0.80;;;0.80;;
24761;SDS011;12865;51.934;10.330;2022-10-16T10:30:10;2.05;;;0.80;;
24761;SDS011;12865;51.934;10.330;2022-10-16T10:33:14;2.53;;;0.98;;
24761;SDS011;12865;51.934;10.330;2022-10-16T10:47:56;0.60;;;0.60;;
24761;SDS011;12865;51.934;10.330;2022-10-16T10:51:01;5.05;;;1.02;;
24761;SDS011;12865;51.934;10.330;2022-10-16T10:53:58;2.10;;;0.63;;
24761;SDS011;12865;51.934;10.330;2022-10-16T10:56:59;2.50;;;0.60;;
24761;SDS011;12865;51.934;10.330;2022-10-16T11:00:06;0.98;;;0.77;;
24761;SDS011;12865;51.934;10.330;2022-10-16T11:05:57;2.50;;;0.68;;
24761;SDS011;12865;51.934;10.330;2022-10-16T11:14:46;1.77;;;1.00;;
24761;SDS011;12865;51.934;10.330;2022-10-16T11:17:39;3.80;;;1.00;;
24761;SDS011;12865;51.934;10.330;2022-10-16T11:20:28;0.90;;;0.60;;
24761;SDS011;12865;51.934;10.330;2022-10-16T11:23:38;1.05;;;0.90;;
24761;SDS011;12865;51.934;10.330;2022-10-16T11:26:34;1.23;;;0.80;;
24761;SDS011;12865;51.934;10.330;2022-10-16T11:29:26;1.33;;;0.63;;
24761;SDS011;12865;51.934;10.330;2022-10-16T11:32:22;0.73;;;0.60;;
24761;SDS011;12865;51.934;10.330;2022-10-16T11:35:22;2.22;;;0.90;;
24761;SDS011;12865;51.934;10.330;2022-10-16T11:41:14;1.75;;;0.60;;
24761;SDS011;12865;51.934;10.330;2022-10-16T11:50:18;1.48;;;0.50;;
24761;SDS011;12865;51.934;10.330;2022-10-16T11:53:16;1.48;;;0.80;;
24761;SDS011;12865;51.934;10.330;2022-10-16T11:56:11;1.90;;;0.65;;
24761;SDS011;12865;51.934;10.330;2022-10-16T11:58:59;1.33;;;0.80;;
24761;SDS011;12865;51.934;10.330;2022-10-16T12:01:50;2.35;;;0.73;;
24761;SDS011;12865;51.934;10.330;2022-10-16T12:08:11;1.02;;;0.60;;
24761;SDS011;12865;51.934;10.330;2022-10-16T12:16:59;0.85;;;0.80;;
24761;SDS011;12865;51.934;10.330;2022-10-16T12:20:01;1.48;;;0.60;;
24761;SDS011;12865;51.934;10.330;2022-10-16T12:23:03;1.00;;;0.57;;
24761;SDS011;12865;51.934;10.330;2022-10-16T12:25:54;0.70;;;0.50;;
24761;SDS011;12865;51.934;10.330;2022-10-16T12:28:42;3.75;;;0.80;;
24761;SDS011;12865;51.934;10.330;2022-10-16T12:31:35;0.70;;;0.60;;
24761;SDS011;12865;51.934;10.330;2022-10-16T12:37:35;2.95;;;0.60;;
24761;SDS011;12865;51.934;10.330;2022-10-16T12:40:26;0.70;;;0.70;;
24761;SDS011;12865;51.934;10.330;2022-10-16T12:51:58;2.33;;;0.40;;
24761;SDS011;12865;51.934;10.330;2022-10-16T12:54:44;0.85;;;0.50;;
24761;SDS011;12865;51.934;10.330;2022-10-16T12:58:19;1.77;;;0.60;;
24761;SDS011;12865;51.934;10.330;2022-10-16T13:01:43;1.33;;;0.70;;
24761;SDS011;12865;51.934;10.330;2022-10-16T13:07:31;2.65;;;0.90;;
24761;SDS011;12865;51.934;10.330;2022-10-16T13:10:32;4.00;;;0.55;;
24761;SDS011;12865;51.934;10.330;2022-10-16T13:13:34;3.53;;;0.73;;
24761;SDS011;12865;51.934;10.330;2022-10-16T13:29:13;1.77;;;0.70;;
24761;SDS011;12865;51.934;10.330;2022-10-16T13:32:00;3.53;;;0.70;;
24761;SDS011;12865;51.934;10.330;2022-10-16T13:34:52;1.55;;;0.63;;
24761;SDS011;12865;51.934;10.330;2022-10-16T13:37:39;1.73;;;0.82;;
24761;SDS011;12865;51.934;10.330;2022-10-16T13:40:25;1.85;;;0.68;;
24761;SDS011;12865;51.934;10.330;2022-10-16T13:43:10;1.95;;;0.60;;
24761;SDS011;12865;51.934;10.330;2022-10-16T13:45:58;4.07;;;0.90;;
24761;SDS011;12865;51.934;10.330;2022-10-16T13:52:00;3.03;;;0.93;;
24761;SDS011;12865;51.934;10.330;2022-10-16T13:54:46;2.00;;;0.60;;
24761;SDS011;12865;51.934;10.330;2022-10-16T13:57:32;1.60;;;0.60;;
24761;SDS011;12865;51.934;10.330;2022-10-16T14:00:22;2.28;;;0.80;;
24761;SDS011;12865;51.934;10.330;2022-10-16T14:03:13;1.17;;;1.10;;
24761;SDS011;12865;51.934;10.330;2022-10-16T14:06:01;0.93;;;0.55;;
24761;SDS011;12865;51.934;10.330;2022-10-16T14:09:09;1.08;;;0.63;;
24761;SDS011;12865;51.934;10.330;2022-10-16T14:12:11;3.83;;;0.90;;
24761;SDS011;12865;51.934;10.330;2022-10-16T14:14:57;1.80;;;0.50;;
24761;SDS011;12865;51.934;10.330;2022-10-16T14:17:45;3.10;;;0.43;;
24761;SDS011;12865;51.934;10.330;2022-10-16T14:20:35;0.57;;;0.57;;
24761;SDS011;12865;51.934;10.330;2022-10-16T14:23:37;1.10;;;0.70;;
24761;SDS011;12865;51.934;10.330;2022-10-16T14:26:25;0.75;;;0.60;;
24761;SDS011;12865;51.934;10.330;2022-10-16T14:29:14;2.65;;;0.70;;
24761;SDS011;12865;51.934;10.330;2022-10-16T14:32:04;0.73;;;0.73;;
24761;SDS011;12865;51.934;10.330;2022-10-16T14:34:53;1.10;;;0.98;;
24761;SDS011;12865;51.934;10.330;2022-10-16T14:37:39;2.40;;;0.70;;
24761;SDS011;12865;51.934;10.330;2022-10-16T14:40:26;0.65;;;0.60;;
24761;SDS011;12865;51.934;10.330;2022-10-16T14:46:15;0.73;;;0.70;;
24761;SDS011;12865;51.934;10.330;2022-10-16T14:51:54;3.67;;;0.60;;
24761;SDS011;12865;51.934;10.330;2022-10-16T14:54:40;0.47;;;0.47;;
24761;SDS011;12865;51.934;10.330;2022-10-16T14:57:26;1.50;;;0.90;;
24761;SDS011;12865;51.934;10.330;2022-10-16T15:00:20;0.90;;;0.60;;
24761;SDS011;12865;51.934;10.330;2022-10-16T15:03:08;3.00;;;0.60;;
24761;SDS011;12865;51.934;10.330;2022-10-16T15:05:54;2.30;;;0.85;;
24761;SDS011;12865;51.934;10.330;2022-10-16T15:08:40;0.95;;;0.80;;
24761;SDS011;12865;51.934;10.330;2022-10-16T15:11:25;1.88;;;0.60;;
24761;SDS011;12865;51.934;10.330;2022-10-16T15:14:12;2.00;;;0.60;;
24761;SDS011;12865;51.934;10.330;2022-10-16T15:16:58;0.70;;;0.70;;
24761;SDS011;12865;51.934;10.330;2022-10-16T15:19:45;2.08;;;0.73;;
24761;SDS011;12865;51.934;10.330;2022-10-16T15:22:31;0.60;;;0.60;;
24761;SDS011;12865;51.934;10.330;2022-10-16T15:25:30;0.98;;;0.63;;
24761;SDS011;12865;51.934;10.330;2022-10-16T15:28:17;0.75;;;0.57;;
24761;SDS011;12865;51.934;10.330;2022-10-16T15:31:04;6.07;;;1.10;;
24761;SDS011;12865;51.934;10.330;2022-10-16T15:33:51;0.75;;;0.75;;
24761;SDS011;12865;51.934;10.330;2022-10-16T15:36:46;1.83;;;0.52;;
24761;SDS011;12865;51.934;10.330;2022-10-16T15:39:32;2.67;;;0.70;;
24761;SDS011;12865;51.934;10.330;2022-10-16T15:42:18;2.17;;;0.50;;
24761;SDS011;12865;51.934;10.330;2022-10-16T15:45:03;0.88;;;0.65;;
24761;SDS011;12865;51.934;10.330;2022-10-16T15:47:51;3.28;;;0.80;;
24761;SDS011;12865;51.934;10.330;2022-10-16T15:50:37;2.45;;;0.80;;
24761;SDS011;12865;51.934;10.330;2022-10-16T15:53:23;1.02;;;0.80;;
24761;SDS011;12865;51.934;10.330;2022-10-16T15:56:10;2.65;;;0.70;;
24761;SDS011;12865;51.934;10.330;2022-10-16T15:58:56;2.53;;;0.75;;
24761;SDS011;12865;51.934;10.330;2022-10-16T16:01:43;1.55;;;0.70;;
24761;SDS011;12865;51.934;10.330;2022-10-16T16:04:29;2.53;;;0.70;;
24761;SDS011;12865;51.934;10.330;2022-10-16T16:07:15;3.22;;;1.75;;
24761;SDS011;12865;51.934;10.330;2022-10-16T16:10:02;1.88;;;1.67;;
24761;SDS011;12865;51.934;10.330;2022-10-16T16:12:49;3.63;;;1.30;;
24761;SDS011;12865;51.934;10.330;2022-10-16T16:15:40;1.23;;;1.10;;
24761;SDS011;12865;51.934;10.330;2022-10-16T16:18:26;5.60;;;1.30;;
24761;SDS011;12865;51.934;10.330;2022-10-16T16:21:13;3.95;;;1.20;;
24761;SDS011;12865;51.934;10.330;2022-10-16T16:23:59;2.75;;;1.20;;
24761;SDS011;12865;51.934;10.330;2022-10-16T16:26:45;4.57;;;1.15;;
24761;SDS011;12865;51.934;10.330;2022-10-16T16:29:30;2.75;;;1.08;;
24761;SDS011;12865;51.934;10.330;2022-10-16T16:32:16;1.67;;;1.23;;
24761;SDS011;12865;51.934;10.330;2022-10-16T16:35:02;2.15;;;1.10;;
24761;SDS011;12865;51.934;10.330;2022-10-16T16:37:51;2.50;;;1.20;;
24761;SDS011;12865;51.934;10.330;2022-10-16T16:40:37;2.72;;;1.40;;
24761;SDS011;12865;51.934;10.330;2022-10-16T16:43:26;3.33;;;1.13;;
24761;SDS011;12865;51.934;10.330;2022-10-16T16:46:13;7.30;;;1.50;;
24761;SDS011;12865;51.934;10.330;2022-10-16T16:49:00;4.07;;;1.20;;
24761;SDS011;12865;51.934;10.330;2022-10-16T16:51:46;5.03;;;1.00;;
24761;SDS011;12865;51.934;10.330;2022-10-16T16:54:32;2.15;;;1.50;;
24761;SDS011;12865;51.934;10.330;2022-10-16T16:57:18;4.13;;;1.08;;
24761;SDS011;12865;51.934;10.330;2022-10-16T17:00:04;5.15;;;1.23;;
24761;SDS011;12865;51.934;10.330;2022-10-16T17:02:51;3.50;;;0.80;;
24761;SDS011;12865;51.934;10.330;2022-10-16T17:05:37;4.28;;;1.30;;
24761;SDS011;12865;51.934;10.330;2022-10-16T17:08:22;2.83;;;1.13;;
24761;SDS011;12865;51.934;10.330;2022-10-16T17:11:13;1.63;;;1.15;;
24761;SDS011;12865;51.934;10.330;2022-10-16T17:14:01;2.85;;;1.10;;
24761;SDS011;12865;51.934;10.330;2022-10-16T17:16:47;5.72;;;1.50;;
24761;SDS011;12865;51.934;10.330;2022-10-16T17:19:34;8.52;;;1.40;;
24761;SDS011;12865;51.934;10.330;2022-10-16T17:22:19;3.03;;;1.30;;
24761;SDS011;12865;51.934;10.330;2022-10-16T17:25:06;5.30;;;1.13;;
24761;SDS011;12865;51.934;10.330;2022-10-16T17:27:54;5.35;;;1.38;;
24761;SDS011;12865;51.934;10.330;2022-10-16T17:30:40;2.05;;;1.10;;
24761;SDS011;12865;51.934;10.330;2022-10-16T17:33:26;6.03;;;1.50;;
24761;SDS011;12865;51.934;10.330;2022-10-16T17:36:12;2.35;;;1.33;;
24761;SDS011;12865;51.934;10.330;2022-10-16T17:38:59;2.35;;;1.30;;
24761;SDS011;12865;51.934;10.330;2022-10-16T17:41:48;2.78;;;1.08;;
24761;SDS011;12865;51.934;10.330;2022-10-16T17:44:34;5.18;;;1.20;;
24761;SDS011;12865;51.934;10.330;2022-10-16T17:47:20;4.05;;;1.02;;
24761;SDS011;12865;51.934;10.330;2022-10-16T17:50:06;5.25;;;1.38;;
24761;SDS011;12865;51.934;10.330;2022-10-16T17:52:52;3.15;;;1.20;;
24761;SDS011;12865;51.934;10.330;2022-10-16T17:55:38;4.32;;;1.08;;
24761;SDS011;12865;51.934;10.330;2022-10-16T17:58:25;4.43;;;1.40;;
24761;SDS011;12865;51.934;10.330;2022-10-16T18:01:15;1.52;;;0.90;;
24761;SDS011;12865;51.934;10.330;2022-10-16T18:04:13;5.32;;;1.25;;
24761;SDS011;12865;51.934;10.330;2022-10-16T18:07:00;4.35;;;1.30;;
24761;SDS011;12865;51.934;10.330;2022-10-16T18:09:46;3.95;;;1.08;;
24761;SDS011;12865;51.934;10.330;2022-10-16T18:12:32;3.90;;;1.45;;
24761;SDS011;12865;51.934;10.330;2022-10-16T18:15:18;4.57;;;1.10;;
24761;SDS011;12865;51.934;10.330;2022-10-16T18:18:04;3.90;;;1.10;;
24761;SDS011;12865;51.934;10.330;2022-10-16T18:20:57;5.35;;;1.30;;
24761;SDS011;12865;51.934;10.330;2022-10-16T18:23:44;1.20;;;1.15;;
24761;SDS011;12865;51.934;10.330;2022-10-16T18:26:30;2.35;;;1.15;;
24761;SDS011;12865;51.934;10.330;2022-10-16T18:29:17;4.15;;;1.17;;